createdAt,value
2023-03-10T00:00:17.197Z,1.50
2023-03-10T00:03:15.285Z,1.23
2023-03-10T00:06:09.906Z,1.35
2023-03-10T00:09:03.984Z,1.42
2023-03-10T00:11:57.295Z,1.35
2023-03-10T00:14:51.535Z,1.38
2023-03-10T00:17:50.295Z,1.27
2023-03-10T00:20:53.349Z,1.30
2023-03-10T00:23:47.027Z,1.40
2023-03-10T00:26:42.920Z,1.05
2023-03-10T00:29:36.279Z,1.00
2023-03-10T00:32:33.117Z,1.50
2023-03-10T00:35:27.728Z,1.20
2023-03-10T00:38:20.936Z,1.35
2023-03-10T00:41:16.711Z,1.30
2023-03-10T00:44:10.133Z,0.68
2023-03-10T00:47:03.000Z,1.15
2023-03-10T00:49:57.837Z,1.17
2023-03-10T00:52:52.265Z,1.38
2023-03-10T00:55:45.992Z,0.95
2023-03-10T00:58:38.727Z,1.38
2023-03-10T01:01:34.125Z,1.30
2023-03-10T01:04:26.935Z,1.23
2023-03-10T01:07:19.558Z,1.05
2023-03-10T01:10:16.087Z,1.27
2023-03-10T01:13:12.380Z,1.45
2023-03-10T01:16:06.608Z,1.10
2023-03-10T01:19:07.945Z,1.10
2023-03-10T01:22:00.856Z,1.00
2023-03-10T01:24:58.709Z,1.20
2023-03-10T01:27:53.429Z,0.85
2023-03-10T01:30:49.781Z,1.10
2023-03-10T01:33:45.542Z,1.05
2023-03-10T01:36:38.818Z,0.98
2023-03-10T01:39:32.120Z,1.10
2023-03-10T01:42:25.015Z,0.88
2023-03-10T01:45:59.926Z,1.10
2023-03-10T01:48:55.793Z,1.25
2023-03-10T01:51:55.881Z,0.90
2023-03-10T01:54:53.975Z,1.02
2023-03-10T01:57:50.805Z,1.17
2023-03-10T02:00:44.982Z,0.70
2023-03-10T02:03:42.352Z,1.02
2023-03-10T02:06:38.614Z,1.17
2023-03-10T02:09:33.712Z,1.08
2023-03-10T02:12:26.743Z,1.05
2023-03-10T02:15:20.337Z,1.00
2023-03-10T02:18:16.882Z,1.02
2023-03-10T02:21:18.876Z,1.05
2023-03-10T02:24:24.142Z,1.00
2023-03-10T02:27:21.598Z,0.90
2023-03-10T02:30:20.022Z,1.02
2023-03-10T02:33:17.494Z,1.00
2023-03-10T02:36:14.939Z,1.10
2023-03-10T02:39:08.269Z,1.60
2023-03-10T02:42:01.350Z,1.05
2023-03-10T02:44:56.982Z,0.93
2023-03-10T02:47:50.046Z,0.70
2023-03-10T02:50:45.760Z,0.82
2023-03-10T02:53:38.736Z,0.98
2023-03-10T02:56:32.253Z,1.00
2023-03-10T02:59:25.090Z,1.00
2023-03-10T03:02:21.389Z,0.90
2023-03-10T03:05:14.804Z,0.90
2023-03-10T03:08:09.270Z,0.68
2023-03-10T03:11:02.157Z,0.98
2023-03-10T03:13:55.451Z,1.02
2023-03-10T03:16:49.152Z,1.17
2023-03-10T03:19:43.599Z,0.77
2023-03-10T03:22:37.143Z,1.00
2023-03-10T03:25:30.896Z,0.95
2023-03-10T03:28:23.651Z,0.77
2023-03-10T03:31:18.852Z,0.70
2023-03-10T03:34:11.966Z,0.98
2023-03-10T03:37:06.319Z,0.73
2023-03-10T03:39:59.240Z,0.70
2023-03-10T03:43:15.445Z,1.20
2023-03-10T03:46:08.729Z,0.80
2023-03-10T03:49:02.230Z,0.80
2023-03-10T03:51:54.834Z,0.90
2023-03-10T03:54:49.247Z,0.70
2023-03-10T03:57:42.290Z,0.75
2023-03-10T04:00:35.754Z,0.90
2023-03-10T04:03:29.173Z,0.70
2023-03-10T04:06:22.252Z,0.80
2023-03-10T04:09:15.018Z,0.70
2023-03-10T04:12:11.402Z,0.70
2023-03-10T04:15:07.089Z,0.73
2023-03-10T04:18:00.524Z,1.00
2023-03-10T04:20:54.284Z,0.60
2023-03-10T04:23:47.162Z,0.75
2023-03-10T04:26:40.080Z,0.80
2023-03-10T04:29:34.300Z,0.60
2023-03-10T04:32:27.374Z,0.85
2023-03-10T04:35:21.727Z,0.70
2023-03-10T04:38:14.963Z,0.68
2023-03-10T04:41:09.567Z,0.98
2023-03-10T04:44:03.809Z,0.70
2023-03-10T04:46:58.578Z,1.00
2023-03-10T04:49:52.285Z,0.70
2023-03-10T04:52:45.555Z,0.93
2023-03-10T04:55:39.365Z,0.90
2023-03-10T04:58:32.032Z,0.82
2023-03-10T05:01:24.770Z,0.60
2023-03-10T05:04:19.203Z,0.60
2023-03-10T05:07:12.193Z,0.85
2023-03-10T05:10:06.089Z,0.70
2023-03-10T05:12:58.930Z,0.73
2023-03-10T05:15:52.546Z,0.70
2023-03-10T05:18:46.584Z,0.88
2023-03-10T05:21:41.378Z,0.80
2023-03-10T05:24:34.204Z,0.70
2023-03-10T05:27:27.578Z,1.10
2023-03-10T05:30:21.365Z,0.80
2023-03-10T05:33:14.036Z,0.60
2023-03-10T05:36:09.134Z,0.90
2023-03-10T05:39:05.869Z,0.70
2023-03-10T05:41:59.100Z,0.55
2023-03-10T05:44:52.333Z,0.60
2023-03-10T05:47:46.520Z,0.63
2023-03-10T05:50:40.349Z,0.73
2023-03-10T05:53:35.549Z,0.80
2023-03-10T05:56:30.468Z,0.80
2023-03-10T05:59:24.403Z,0.55
2023-03-10T06:02:17.097Z,0.70
2023-03-10T06:05:13.545Z,0.90
2023-03-10T06:08:07.382Z,0.85
2023-03-10T06:11:00.427Z,0.80
2023-03-10T06:13:54.517Z,0.80
2023-03-10T06:16:51.473Z,0.80
2023-03-10T06:19:45.358Z,0.63
2023-03-10T06:22:38.220Z,0.82
2023-03-10T06:25:31.063Z,0.70
2023-03-10T06:28:24.083Z,0.88
2023-03-10T06:31:20.887Z,0.60
2023-03-10T06:34:13.905Z,0.70
2023-03-10T06:37:07.492Z,0.77
2023-03-10T06:40:01.192Z,0.90
2023-03-10T06:42:54.062Z,0.50
2023-03-10T06:45:48.190Z,0.70
2023-03-10T06:48:44.277Z,0.50
2023-03-10T06:51:36.963Z,0.70
2023-03-10T06:54:30.193Z,0.60
2023-03-10T06:57:23.067Z,0.75
2023-03-10T07:00:18.203Z,0.60
2023-03-10T07:03:12.776Z,0.60
2023-03-10T07:06:07.712Z,0.80
2023-03-10T07:09:01.657Z,0.60
2023-03-10T07:11:55.142Z,0.70
2023-03-10T07:14:48.247Z,0.80
2023-03-10T07:17:41.088Z,0.65
2023-03-10T07:20:34.450Z,0.68
2023-03-10T07:23:28.925Z,0.93
2023-03-10T07:26:22.042Z,0.82
2023-03-10T07:29:15.391Z,0.68
2023-03-10T07:32:08.314Z,0.63
2023-03-10T07:35:01.347Z,0.75
2023-03-10T07:37:54.237Z,0.75
2023-03-10T07:40:48.595Z,0.60
2023-03-10T07:43:42.336Z,0.70
2023-03-10T07:46:35.062Z,1.05
2023-03-10T07:49:28.331Z,1.13
2023-03-10T07:52:21.085Z,0.60
2023-03-10T07:55:14.719Z,0.80
2023-03-10T07:58:10.599Z,0.75
2023-03-10T08:01:04.542Z,0.60
2023-03-10T08:03:58.447Z,0.57
2023-03-10T08:06:51.049Z,0.80
2023-03-10T08:09:44.284Z,0.60
2023-03-10T08:12:38.114Z,0.52
2023-03-10T08:15:33.070Z,0.70
2023-03-10T08:18:26.202Z,0.70
2023-03-10T08:21:19.225Z,0.80
2023-03-10T08:24:12.295Z,0.60
2023-03-10T08:27:05.551Z,0.63
2023-03-10T08:29:58.265Z,0.80
2023-03-10T08:32:52.195Z,0.65
2023-03-10T08:35:45.209Z,0.57
2023-03-10T08:38:38.676Z,0.50
2023-03-10T08:41:35.570Z,0.57
2023-03-10T08:44:29.583Z,0.50
2023-03-10T08:47:23.648Z,0.60
2023-03-10T08:50:18.729Z,0.57
2023-03-10T08:53:12.532Z,0.77
2023-03-10T08:56:05.920Z,0.57
2023-03-10T08:59:00.777Z,0.45
2023-03-10T09:01:54.232Z,0.63
2023-03-10T09:04:47.453Z,0.50
2023-03-10T09:07:42.048Z,0.45
2023-03-10T09:10:35.294Z,0.70
2023-03-10T09:13:28.565Z,0.60
2023-03-10T09:16:21.331Z,0.50
2023-03-10T09:19:14.426Z,0.52
2023-03-10T09:22:07.366Z,0.70
2023-03-10T09:25:01.891Z,0.50
2023-03-10T09:27:55.264Z,0.57
2023-03-10T09:30:48.299Z,0.45
2023-03-10T09:33:41.249Z,0.73
2023-03-10T09:36:34.721Z,0.60
2023-03-10T09:39:28.080Z,0.60
2023-03-10T09:42:38.884Z,0.80
2023-03-10T09:45:39.236Z,0.57
2023-03-10T09:48:42.334Z,0.80
2023-03-10T09:51:37.414Z,0.85
2023-03-10T09:54:42.260Z,0.68
2023-03-10T09:57:37.051Z,0.40
2023-03-10T10:00:35.316Z,0.60
2023-03-10T10:03:42.999Z,0.70
2023-03-10T10:06:46.563Z,0.70
2023-03-10T10:09:45.094Z,0.63
2023-03-10T10:12:39.757Z,0.50
2023-03-10T10:15:35.552Z,0.43
2023-03-10T10:18:37.245Z,0.50
2023-03-10T10:21:42.573Z,0.40
2023-03-10T10:24:36.341Z,0.65
2023-03-10T10:27:32.080Z,0.60
2023-03-10T10:30:40.267Z,0.60
2023-03-10T10:33:53.527Z,0.50
2023-03-10T10:36:51.806Z,0.60
2023-03-10T10:39:52.403Z,0.60
2023-03-10T10:42:53.967Z,0.43
2023-03-10T10:45:55.062Z,0.50
2023-03-10T10:48:51.521Z,0.68
2023-03-10T10:51:44.113Z,0.52
2023-03-10T10:54:40.316Z,0.75
2023-03-10T10:57:36.138Z,0.70
2023-03-10T11:00:31.910Z,0.68
2023-03-10T11:03:32.576Z,0.50
2023-03-10T11:06:29.118Z,0.70
2023-03-10T11:09:23.165Z,0.40
2023-03-10T11:12:22.105Z,0.50
2023-03-10T11:15:23.700Z,0.50
2023-03-10T11:18:22.733Z,0.77
2023-03-10T11:21:26.185Z,0.50
2023-03-10T11:24:27.335Z,0.60
2023-03-10T11:27:29.312Z,0.50
2023-03-10T11:30:29.721Z,0.60
2023-03-10T11:33:29.222Z,0.70
2023-03-10T11:36:38.400Z,0.50
2023-03-10T11:39:45.633Z,0.50
2023-03-10T11:42:44.682Z,0.50
2023-03-10T11:45:44.334Z,0.60
2023-03-10T11:48:54.482Z,0.65
2023-03-10T11:51:52.658Z,0.52
2023-03-10T11:54:49.066Z,0.52
2023-03-10T11:57:48.488Z,0.40
2023-03-10T12:00:43.752Z,0.88
2023-03-10T12:03:48.285Z,0.65
2023-03-10T12:06:46.788Z,0.60
2023-03-10T12:09:46.387Z,0.73
2023-03-10T12:12:42.233Z,0.57
2023-03-10T12:15:39.720Z,0.80
2023-03-10T12:18:35.201Z,0.93
2023-03-10T12:21:29.687Z,0.75
2023-03-10T12:24:47.632Z,0.70
2023-03-10T12:28:14.213Z,0.60
2023-03-10T12:31:10.485Z,0.65
2023-03-10T12:34:15.050Z,0.30
2023-03-10T12:37:10.797Z,0.55
2023-03-10T12:40:44.580Z,0.73
2023-03-10T12:43:55.579Z,0.65
2023-03-10T12:46:51.199Z,0.43
2023-03-10T12:49:50.962Z,0.55
2023-03-10T12:52:53.997Z,0.70
2023-03-10T12:56:18.747Z,0.77
2023-03-10T12:59:17.646Z,0.77
2023-03-10T13:02:24.726Z,0.60
2023-03-10T13:05:23.592Z,0.80
2023-03-10T13:08:21.329Z,0.57
2023-03-10T13:11:30.972Z,0.70
2023-03-10T13:14:27.614Z,0.60
2023-03-10T13:17:25.664Z,0.57
2023-03-10T13:20:20.245Z,0.55
2023-03-10T13:23:22.663Z,0.70
2023-03-10T13:26:18.127Z,0.50
2023-03-10T13:29:18.949Z,0.63
2023-03-10T13:32:19.704Z,0.60
2023-03-10T13:35:24.930Z,0.50
2023-03-10T13:38:21.712Z,0.60
2023-03-10T13:41:15.318Z,0.55
2023-03-10T13:44:20.379Z,0.70
2023-03-10T13:47:16.990Z,0.63
2023-03-10T13:50:15.218Z,0.43
2023-03-10T13:53:24.257Z,0.65
2023-03-10T13:56:24.074Z,0.60
2023-03-10T13:59:22.928Z,0.60
2023-03-10T14:02:19.934Z,0.52
2023-03-10T14:05:42.030Z,0.80
2023-03-10T14:08:35.356Z,0.60
2023-03-10T14:11:36.767Z,0.80
2023-03-10T14:14:32.677Z,0.52
2023-03-10T14:17:33.786Z,0.63
2023-03-10T14:20:28.274Z,0.45
2023-03-10T14:23:27.057Z,0.90
2023-03-10T14:26:23.949Z,0.70
2023-03-10T14:29:19.364Z,0.68
2023-03-10T14:32:14.820Z,0.80
2023-03-10T14:35:12.160Z,0.52
2023-03-10T14:38:05.389Z,0.70
2023-03-10T14:40:58.899Z,0.40
2023-03-10T14:43:52.955Z,0.60
2023-03-10T14:46:47.784Z,0.93
2023-03-10T14:49:43.117Z,0.52
2023-03-10T14:52:36.502Z,0.50
2023-03-10T14:55:30.333Z,0.77
2023-03-10T14:58:25.274Z,0.50
2023-03-10T15:01:20.334Z,0.70
2023-03-10T15:04:15.875Z,0.82
2023-03-10T15:07:12.709Z,0.60
2023-03-10T15:10:11.465Z,0.82
2023-03-10T15:13:04.774Z,0.57
2023-03-10T15:15:57.665Z,0.90
2023-03-10T15:18:52.492Z,0.60
2023-03-10T15:21:45.640Z,0.70
2023-03-10T15:24:39.851Z,0.65
2023-03-10T15:27:32.849Z,0.43
2023-03-10T15:30:27.849Z,0.60
2023-03-10T15:33:20.313Z,0.60
2023-03-10T15:36:13.382Z,0.60
2023-03-10T15:39:06.814Z,0.90
2023-03-10T15:42:01.101Z,0.70
2023-03-10T15:44:54.411Z,0.47
2023-03-10T15:47:48.032Z,0.80
2023-03-10T15:50:43.546Z,0.80
2023-03-10T15:53:37.117Z,0.70
2023-03-10T15:56:30.553Z,0.80
2023-03-10T15:59:25.237Z,0.70
2023-03-10T16:02:18.543Z,0.40
2023-03-10T16:05:11.995Z,0.77
2023-03-10T16:08:06.542Z,0.70
2023-03-10T16:10:59.776Z,0.60
2023-03-10T16:13:52.821Z,0.60
2023-03-10T16:16:46.946Z,0.47
2023-03-10T16:19:40.609Z,0.50
2023-03-10T16:22:33.701Z,0.57
2023-03-10T16:25:26.648Z,0.63
2023-03-10T16:28:19.807Z,0.50
2023-03-10T16:31:14.328Z,0.90
2023-03-10T16:34:09.422Z,0.70
2023-03-10T16:37:03.266Z,0.90
2023-03-10T16:39:57.538Z,0.50
2023-03-10T16:42:51.313Z,0.90
2023-03-10T16:45:48.427Z,0.75
2023-03-10T16:48:43.628Z,0.60
2023-03-10T16:51:41.953Z,0.80
2023-03-10T16:54:35.619Z,0.45
2023-03-10T16:57:28.284Z,0.50
2023-03-10T17:00:22.793Z,0.60
2023-03-10T17:03:15.703Z,0.50
2023-03-10T17:06:11.051Z,0.57
2023-03-10T17:09:07.369Z,1.00
2023-03-10T17:12:02.551Z,0.50
2023-03-10T17:14:57.955Z,0.50
2023-03-10T17:17:51.909Z,0.68
2023-03-10T17:20:44.810Z,0.70
2023-03-10T17:23:37.812Z,0.60
2023-03-10T17:26:32.024Z,0.70
2023-03-10T17:29:25.446Z,0.50
2023-03-10T17:32:18.915Z,0.80
2023-03-10T17:35:11.590Z,0.73
2023-03-10T17:38:04.409Z,0.70
2023-03-10T17:40:57.620Z,0.93
2023-03-10T17:43:52.306Z,0.57
2023-03-10T17:46:46.487Z,0.60
2023-03-10T17:49:40.962Z,0.85
2023-03-10T17:52:34.609Z,0.60
2023-03-10T17:55:27.659Z,0.60
2023-03-10T17:58:21.101Z,0.60
2023-03-10T18:01:18.237Z,0.50
2023-03-10T18:04:12.186Z,0.73
2023-03-10T18:07:05.924Z,0.70
2023-03-10T18:09:58.866Z,0.68
2023-03-10T18:12:51.830Z,0.50
2023-03-10T18:15:50.801Z,0.68
2023-03-10T18:18:45.233Z,0.70
2023-03-10T18:21:38.909Z,0.60
2023-03-10T18:24:32.018Z,0.55
2023-03-10T18:27:24.690Z,0.60
2023-03-10T18:30:20.313Z,0.68
2023-03-10T18:33:14.111Z,0.60
2023-03-10T18:36:13.617Z,0.43
2023-03-10T18:39:07.756Z,0.60
2023-03-10T18:42:01.252Z,0.90
2023-03-10T18:44:55.532Z,0.60
2023-03-10T18:47:48.724Z,0.88
2023-03-10T18:50:41.774Z,0.90
2023-03-10T18:53:36.178Z,0.73
2023-03-10T18:56:29.512Z,0.75
2023-03-10T18:59:22.897Z,0.82
2023-03-10T19:02:16.281Z,1.10
2023-03-10T19:05:13.406Z,1.17
2023-03-10T19:08:07.791Z,0.80
2023-03-10T19:11:02.085Z,1.00
2023-03-10T19:13:55.736Z,1.00
2023-03-10T19:16:50.001Z,0.80
2023-03-10T19:19:42.419Z,0.98
2023-03-10T19:22:35.970Z,0.80
2023-03-10T19:25:28.894Z,0.82
2023-03-10T19:28:23.278Z,1.00
2023-03-10T19:31:17.151Z,0.82
2023-03-10T19:34:11.979Z,0.80
2023-03-10T19:37:04.715Z,0.88
2023-03-10T19:39:57.857Z,0.90
2023-03-10T19:42:50.959Z,1.15
2023-03-10T19:45:45.288Z,0.88
2023-03-10T19:48:39.429Z,0.75
2023-03-10T19:51:33.282Z,0.93
2023-03-10T19:54:27.037Z,0.90
2023-03-10T19:57:19.790Z,1.00
2023-03-10T20:00:16.096Z,1.10
2023-03-10T20:03:12.040Z,1.10
2023-03-10T20:06:05.214Z,1.00
2023-03-10T20:08:59.638Z,0.70
2023-03-10T20:11:52.982Z,0.70
2023-03-10T20:14:45.942Z,0.90
2023-03-10T20:17:38.999Z,0.80
2023-03-10T20:20:33.350Z,0.68
2023-03-10T20:23:26.737Z,0.88
2023-03-10T20:26:20.377Z,5.20
2023-03-10T20:29:15.205Z,3.80
2023-03-10T20:32:09.135Z,2.80
2023-03-10T20:35:04.288Z,3.05
2023-03-10T20:37:59.503Z,2.92
2023-03-10T20:40:52.908Z,3.10
2023-03-10T20:43:46.270Z,2.45
2023-03-10T20:46:39.863Z,3.30
2023-03-10T20:49:33.005Z,2.15
2023-03-10T20:52:25.686Z,2.88
2023-03-10T20:55:22.978Z,2.33
2023-03-10T20:58:16.285Z,2.22
2023-03-10T21:01:16.376Z,2.75
2023-03-10T21:04:09.765Z,2.42
2023-03-10T21:07:03.616Z,1.95
2023-03-10T21:09:57.976Z,2.80
2023-03-10T21:12:52.576Z,2.47
2023-03-10T21:15:45.530Z,2.10
2023-03-10T21:18:39.162Z,2.17
2023-03-10T21:21:34.353Z,2.17
2023-03-10T21:24:27.727Z,2.22
2023-03-10T21:27:21.061Z,1.98
2023-03-10T21:30:17.172Z,2.50
2023-03-10T21:33:10.475Z,1.55
2023-03-10T21:36:04.246Z,1.55
2023-03-10T21:38:57.978Z,2.10
2023-03-10T21:41:50.960Z,2.00
2023-03-10T21:44:43.661Z,2.05
2023-03-10T21:47:38.104Z,1.67
2023-03-10T21:50:31.353Z,2.00
2023-03-10T21:53:26.570Z,1.85
2023-03-10T21:56:21.977Z,1.65
2023-03-10T21:59:16.620Z,1.83
2023-03-10T22:02:17.253Z,1.60
2023-03-10T22:05:16.477Z,1.67
2023-03-10T22:08:09.610Z,1.80
2023-03-10T22:11:03.546Z,1.77
2023-03-10T22:13:56.906Z,1.52
2023-03-10T22:16:50.072Z,1.38
2023-03-10T22:19:43.009Z,1.75
2023-03-10T22:22:37.306Z,1.45
2023-03-10T22:25:30.754Z,1.80
2023-03-10T22:28:24.484Z,1.88
2023-03-10T22:31:18.246Z,1.30
2023-03-10T22:34:11.894Z,1.73
2023-03-10T22:37:05.315Z,1.70
2023-03-10T22:40:01.069Z,1.50
2023-03-10T22:42:54.375Z,1.55
2023-03-10T22:45:47.773Z,1.40
2023-03-10T22:48:41.885Z,1.42
2023-03-10T22:51:34.935Z,1.40
2023-03-10T22:54:28.396Z,1.67
2023-03-10T22:57:23.142Z,1.58
2023-03-10T23:00:19.630Z,1.25
2023-03-10T23:03:13.908Z,1.20
2023-03-10T23:06:07.415Z,1.35
2023-03-10T23:09:00.756Z,1.60
2023-03-10T23:11:53.891Z,1.60
2023-03-10T23:14:48.209Z,1.30
2023-03-10T23:17:40.854Z,1.10
2023-03-10T23:20:36.168Z,1.13
2023-03-10T23:23:28.918Z,1.17
2023-03-10T23:26:22.239Z,1.33
2023-03-10T23:29:15.116Z,1.40
2023-03-10T23:32:09.762Z,1.52
2023-03-10T23:35:05.705Z,1.27
2023-03-10T23:38:00.171Z,1.45
2023-03-10T23:40:53.522Z,1.10
2023-03-10T23:43:46.943Z,1.17
2023-03-10T23:46:39.934Z,1.25
2023-03-10T23:49:34.321Z,1.05
2023-03-10T23:52:27.995Z,1.70
2023-03-10T23:55:24.627Z,1.30
2023-03-10T23:58:19.549Z,1.23
